createdAt,value
2019-01-23T00:02:26.614Z,15.67
2019-01-23T00:05:08.928Z,17.30
2019-01-23T00:07:43.921Z,16.50
2019-01-23T00:10:29.035Z,16.17
2019-01-23T00:13:08.310Z,15.47
2019-01-23T00:15:47.890Z,17.07
2019-01-23T00:18:25.207Z,16.37
2019-01-23T00:20:59.208Z,17.07
2019-01-23T00:23:35.391Z,16.83
2019-01-23T00:26:15.311Z,17.03
2019-01-23T00:28:54.104Z,16.37
2019-01-23T00:31:32.344Z,16.03
2019-01-23T00:34:15.856Z,16.30
2019-01-23T00:36:50.471Z,16.20
2019-01-23T00:39:31.285Z,16.10
2019-01-23T00:42:09.639Z,16.80
2019-01-23T00:44:42.243Z,16.63
2019-01-23T00:47:21.902Z,17.17
2019-01-23T00:49:58.676Z,15.67
2019-01-23T00:52:35.262Z,16.27
2019-01-23T00:55:25.803Z,16.50
2019-01-23T00:58:02.267Z,16.20
2019-01-23T01:00:34.144Z,16.03
2019-01-23T01:03:06.209Z,16.47
2019-01-23T01:05:38.286Z,15.40
2019-01-23T01:08:18.862Z,16.50
2019-01-23T01:10:51.385Z,16.27
2019-01-23T01:13:32.448Z,15.63
2019-01-23T01:16:08.712Z,15.77
2019-01-23T01:18:45.450Z,16.27
2019-01-23T01:21:15.319Z,16.40
2019-01-23T01:23:43.016Z,16.13
2019-01-23T01:26:14.868Z,16.70
2019-01-23T01:28:55.823Z,16.90
2019-01-23T01:31:25.570Z,15.57
2019-01-23T01:34:01.499Z,15.27
2019-01-23T01:36:39.582Z,17.00
2019-01-23T01:39:16.822Z,16.23
2019-01-23T01:41:56.229Z,15.97
2019-01-23T01:44:39.250Z,15.37
2019-01-23T01:47:12.891Z,14.63
2019-01-23T01:49:57.763Z,16.00
2019-01-23T01:52:38.348Z,15.53
2019-01-23T01:55:19.201Z,16.00
2019-01-23T01:57:58.226Z,15.47
2019-01-23T02:00:31.568Z,15.67
2019-01-23T02:03:08.234Z,15.83
2019-01-23T02:05:46.687Z,14.30
2019-01-23T02:08:26.757Z,16.43
2019-01-23T02:11:16.555Z,15.70
2019-01-23T02:13:51.737Z,16.17
2019-01-23T02:16:27.810Z,14.83
2019-01-23T02:19:01.283Z,15.97
2019-01-23T02:21:33.913Z,15.90
2019-01-23T02:24:18.645Z,15.57
2019-01-23T02:26:56.157Z,15.70
2019-01-23T02:29:37.784Z,15.43
2019-01-23T02:32:14.391Z,15.93
2019-01-23T02:34:49.455Z,15.73
2019-01-23T02:37:30.608Z,16.30
2019-01-23T02:40:26.519Z,15.50
2019-01-23T02:43:00.663Z,15.23
2019-01-23T02:45:41.301Z,15.43
2019-01-23T02:48:18.766Z,15.97
2019-01-23T02:50:53.847Z,14.53
2019-01-23T02:53:34.611Z,15.57
2019-01-23T02:59:22.424Z,14.70
2019-01-23T03:02:16.285Z,14.93
2019-01-23T03:04:58.628Z,14.87
2019-01-23T03:08:07.036Z,14.43
2019-01-23T03:10:56.337Z,14.30
2019-01-23T03:13:37.920Z,14.23
2019-01-23T03:16:23.656Z,14.73
2019-01-23T03:19:04.443Z,13.93
2019-01-23T03:21:44.834Z,14.40
2019-01-23T03:24:22.526Z,15.03
2019-01-23T03:27:07.588Z,14.73
2019-01-23T03:29:48.759Z,14.20
2019-01-23T03:32:33.606Z,14.60
2019-01-23T03:35:09.521Z,14.47
2019-01-23T03:38:10.292Z,14.70
2019-01-23T03:44:22.053Z,14.17
2019-01-23T03:46:58.104Z,14.63
2019-01-23T03:49:45.625Z,14.40
2019-01-23T03:52:31.411Z,14.07
2019-01-23T03:55:21.076Z,14.47
2019-01-23T03:58:24.115Z,13.43
2019-01-23T04:01:09.525Z,14.07
2019-01-23T04:03:56.846Z,14.97
2019-01-23T04:06:49.162Z,14.37
2019-01-23T04:09:43.091Z,15.67
2019-01-23T04:12:32.495Z,15.37
2019-01-23T04:15:18.668Z,15.93
2019-01-23T04:18:05.310Z,16.33
2019-01-23T04:20:59.709Z,15.73
2019-01-23T04:23:50.386Z,16.07
2019-01-23T04:26:36.747Z,16.03
2019-01-23T04:32:37.942Z,15.37
2019-01-23T04:35:29.626Z,16.27
2019-01-23T04:38:30.033Z,15.83
2019-01-23T04:41:33.151Z,16.37
2019-01-23T04:44:16.649Z,16.70
2019-01-23T04:47:02.239Z,16.17
2019-01-23T04:49:47.200Z,15.83
2019-01-23T04:52:46.164Z,16.77
2019-01-23T04:55:29.418Z,15.80
2019-01-23T04:58:15.224Z,15.73
2019-01-23T05:00:50.284Z,16.27
2019-01-23T05:03:32.588Z,15.50
2019-01-23T05:06:31.345Z,16.07
2019-01-23T05:09:08.542Z,15.27
2019-01-23T05:12:05.583Z,15.90
2019-01-23T05:14:44.097Z,16.00
2019-01-23T05:17:33.408Z,15.97
2019-01-23T05:20:40.759Z,15.77
2019-01-23T05:23:11.289Z,15.70
2019-01-23T05:25:51.006Z,15.57
2019-01-23T05:28:35.892Z,15.13
2019-01-23T05:31:32.435Z,15.23
2019-01-23T05:34:15.856Z,16.00
2019-01-23T05:37:06.160Z,15.83
2019-01-23T05:42:45.794Z,15.47
2019-01-23T05:45:30.090Z,16.67
2019-01-23T05:48:09.499Z,17.50
2019-01-23T05:50:48.205Z,16.87
2019-01-23T05:53:28.913Z,16.77
2019-01-23T05:56:13.985Z,16.77
2019-01-23T05:58:58.708Z,16.33
2019-01-23T06:01:41.039Z,17.07
2019-01-23T06:04:19.953Z,17.03
2019-01-23T06:06:59.310Z,17.13
2019-01-23T06:09:43.040Z,17.50
2019-01-23T06:12:30.999Z,16.77
2019-01-23T06:15:11.003Z,16.93
2019-01-23T06:18:04.803Z,17.43
2019-01-23T06:20:45.089Z,18.07
2019-01-23T06:23:26.120Z,17.67
2019-01-23T06:26:08.822Z,18.20
2019-01-23T06:29:08.374Z,17.50
2019-01-23T06:31:46.494Z,17.60
2019-01-23T06:34:30.613Z,17.77
2019-01-23T06:37:17.274Z,18.23
2019-01-23T06:40:04.690Z,17.07
2019-01-23T06:43:06.097Z,17.73
2019-01-23T06:46:02.952Z,17.37
2019-01-23T06:48:47.487Z,17.47
2019-01-23T06:51:32.876Z,16.50
2019-01-23T06:54:18.978Z,17.43
2019-01-23T06:56:59.948Z,17.80
2019-01-23T06:59:59.289Z,17.00
2019-01-23T07:02:55.110Z,16.77
2019-01-23T07:05:58.360Z,16.83
2019-01-23T07:08:43.822Z,17.07
2019-01-23T07:11:34.320Z,17.33
2019-01-23T07:14:35.260Z,18.33
2019-01-23T07:17:19.255Z,16.40
2019-01-23T07:35:58.820Z,16.97
2019-01-23T07:37:29.178Z,16.13
2019-01-23T07:55:23.097Z,16.60
2019-01-23T07:58:28.255Z,17.87
2019-01-23T08:01:39.951Z,16.67
2019-01-23T08:04:48.948Z,17.50
2019-01-23T08:25:07.666Z,17.90
2019-01-23T08:36:21.097Z,17.57
2019-01-23T08:39:22.693Z,17.50
2019-01-23T08:42:36.211Z,17.57
2019-01-23T08:45:12.295Z,17.50
2019-01-23T08:48:26.002Z,19.70
2019-01-23T08:51:12.128Z,18.53
2019-01-23T08:54:31.153Z,18.60
2019-01-23T08:58:06.191Z,17.87
2019-01-23T09:01:29.324Z,19.07
2019-01-23T09:04:47.955Z,18.93
2019-01-23T09:07:58.865Z,17.90
2019-01-23T09:11:17.012Z,18.20
2019-01-23T09:14:00.840Z,19.03
2019-01-23T09:17:04.500Z,18.77
2019-01-23T09:19:55.372Z,19.10
2019-01-23T09:22:34.444Z,19.07
2019-01-23T09:25:25.927Z,18.13
2019-01-23T09:28:16.115Z,19.03
2019-01-23T09:31:08.212Z,19.97
2019-01-23T09:34:14.610Z,18.47
2019-01-23T09:37:36.718Z,19.23
2019-01-23T09:41:00.827Z,18.90
2019-01-23T09:44:12.866Z,19.10
2019-01-23T09:47:30.147Z,18.90
2019-01-23T09:50:38.678Z,20.17
2019-01-23T09:53:46.656Z,20.43
2019-01-23T09:56:22.648Z,21.63
2019-01-23T09:58:52.774Z,19.57
2019-01-23T10:01:25.550Z,21.13
2019-01-23T10:03:57.387Z,22.07
2019-01-23T10:06:34.788Z,22.40
2019-01-23T10:09:11.606Z,22.63
2019-01-23T10:11:50.570Z,21.93
2019-01-23T10:14:26.362Z,22.37
2019-01-23T10:17:12.611Z,23.30
2019-01-23T10:19:57.719Z,23.37
2019-01-23T10:22:29.386Z,23.00
2019-01-23T10:25:07.541Z,23.23
2019-01-23T10:27:49.643Z,24.03
2019-01-23T10:30:52.019Z,24.00
2019-01-23T10:33:58.207Z,24.80
2019-01-23T10:36:35.089Z,23.33
2019-01-23T10:39:06.236Z,24.77
2019-01-23T10:41:36.947Z,23.30
2019-01-23T10:44:08.105Z,23.50
2019-01-23T10:46:53.919Z,23.67
2019-01-23T10:49:21.583Z,24.53
2019-01-23T10:51:49.296Z,24.53
2019-01-23T10:54:22.829Z,24.97
2019-01-23T10:56:57.166Z,26.73
2019-01-23T10:59:27.387Z,25.13
2019-01-23T11:01:57.525Z,25.83
2019-01-23T11:04:25.125Z,27.87
2019-01-23T11:06:54.856Z,26.07
2019-01-23T11:09:22.761Z,29.60
2019-01-23T11:11:50.499Z,27.20
2019-01-23T11:14:18.333Z,31.93
2019-01-23T11:16:50.698Z,27.27
2019-01-23T11:19:23.180Z,27.27
2019-01-23T11:22:20.569Z,25.53
2019-01-23T11:24:58.356Z,26.70
2019-01-23T11:27:29.172Z,25.97
2019-01-23T11:29:59.944Z,31.87
2019-01-23T11:32:28.393Z,28.40
2019-01-23T11:34:56.095Z,28.17
2019-01-23T11:37:41.826Z,29.57
2019-01-23T11:40:29.556Z,30.70
2019-01-23T11:42:57.450Z,30.83
2019-01-23T11:45:42.511Z,26.87
2019-01-23T11:48:32.961Z,26.83
2019-01-23T11:51:15.483Z,29.80
2019-01-23T11:53:52.510Z,27.70
2019-01-23T11:56:32.135Z,28.80
2019-01-23T11:59:06.300Z,29.03
2019-01-23T12:01:38.151Z,34.23
2019-01-23T12:04:22.280Z,25.90
2019-01-23T12:06:51.480Z,29.00
2019-01-23T12:09:22.588Z,27.77
2019-01-23T12:12:19.372Z,30.20
2019-01-23T12:14:51.573Z,28.83
2019-01-23T12:17:23.324Z,27.70
2019-01-23T12:19:52.700Z,30.80
2019-01-23T12:22:20.446Z,28.57
2019-01-23T12:24:48.053Z,31.33
2019-01-23T12:27:15.663Z,29.27
2019-01-23T12:29:43.277Z,31.40
2019-01-23T12:32:41.965Z,30.73
2019-01-23T12:35:12.762Z,30.73
2019-01-23T12:37:49.886Z,30.10
2019-01-23T12:40:47.039Z,30.37
2019-01-23T12:43:23.116Z,31.47
2019-01-23T12:46:06.306Z,28.30
2019-01-23T12:51:46.440Z,30.97
2019-01-23T12:54:24.067Z,29.03
2019-01-23T12:56:58.999Z,30.93
2019-01-23T12:59:29.538Z,29.53
2019-01-23T13:01:57.242Z,32.53
2019-01-23T13:04:24.955Z,31.50
2019-01-23T13:06:54.379Z,29.40
2019-01-23T13:09:24.740Z,31.27
2019-01-23T13:11:54.248Z,29.30
2019-01-23T13:14:21.986Z,30.33
2019-01-23T13:16:55.289Z,31.07
2019-01-23T13:19:25.275Z,32.47
2019-01-23T13:21:52.991Z,31.07
2019-01-23T13:24:26.051Z,33.57
2019-01-23T13:27:12.708Z,30.47
2019-01-23T13:29:50.779Z,31.63
2019-01-23T13:32:34.520Z,32.63
2019-01-23T13:35:08.145Z,33.17
2019-01-23T13:38:15.240Z,33.37
2019-01-23T13:41:01.090Z,32.77
2019-01-23T13:43:28.816Z,33.03
2019-01-23T13:46:10.538Z,32.40
2019-01-23T13:49:03.836Z,31.33
2019-01-23T13:51:33.603Z,31.40
2019-01-23T13:54:01.844Z,30.93
2019-01-23T13:56:52.400Z,32.60
2019-01-23T13:59:20.087Z,31.87
2019-01-23T14:01:47.748Z,30.67
2019-01-23T14:04:27.234Z,31.40
2019-01-23T14:06:54.222Z,32.30
2019-01-23T14:09:24.443Z,32.60
2019-01-23T14:11:52.089Z,29.97
2019-01-23T14:14:21.637Z,30.60
2019-01-23T14:16:49.275Z,30.53
2019-01-23T14:19:16.961Z,31.67
2019-01-23T14:21:45.786Z,29.47
2019-01-23T14:24:13.389Z,31.73
2019-01-23T14:26:49.365Z,31.53
2019-01-23T14:29:19.957Z,30.30
2019-01-23T14:31:50.027Z,31.53
2019-01-23T14:34:17.813Z,30.23
2019-01-23T14:36:45.511Z,32.50
2019-01-23T14:39:17.801Z,32.27
2019-01-23T14:41:45.561Z,33.20
2019-01-23T14:44:13.211Z,31.60
2019-01-23T14:46:41.155Z,31.70
2019-01-23T14:49:08.809Z,31.57
2019-01-23T14:51:39.022Z,32.70
2019-01-23T14:54:09.253Z,32.30
2019-01-23T14:56:42.207Z,30.70
2019-01-23T14:59:09.911Z,33.10
2019-01-23T15:01:37.811Z,29.73
2019-01-23T15:04:05.456Z,30.17
2019-01-23T15:06:34.102Z,32.20
2019-01-23T15:09:01.772Z,28.47
2019-01-23T15:11:30.060Z,31.23
2019-01-23T15:13:57.794Z,34.60
2019-01-23T15:16:27.650Z,31.57
2019-01-23T15:18:58.164Z,32.07
2019-01-23T15:21:25.808Z,30.60
2019-01-23T15:23:53.672Z,32.93
2019-01-23T15:26:21.461Z,32.40
2019-01-23T15:28:49.110Z,33.23
2019-01-23T15:31:16.769Z,31.63
2019-01-23T15:33:44.472Z,32.63
2019-01-23T15:36:13.873Z,31.03
2019-01-23T15:38:41.900Z,33.70
2019-01-23T15:41:09.562Z,31.53
2019-01-23T15:43:37.220Z,34.50
2019-01-23T15:46:05.162Z,32.70
2019-01-23T15:48:32.837Z,33.13
2019-01-23T15:51:05.071Z,34.77
2019-01-23T15:53:30.103Z,32.97
2019-01-23T15:55:58.225Z,35.20
2019-01-23T15:58:45.636Z,38.77
2019-01-23T16:01:22.135Z,33.77
2019-01-23T16:03:49.829Z,35.83
2019-01-23T16:06:20.347Z,33.40
2019-01-23T16:08:48.008Z,34.57
2019-01-23T16:11:17.262Z,34.57
2019-01-23T16:13:47.242Z,33.10
2019-01-23T16:16:14.996Z,33.70
2019-01-23T16:18:42.784Z,35.40
2019-01-23T16:21:20.774Z,34.77
2019-01-23T16:23:48.511Z,35.43
2019-01-23T16:26:28.566Z,35.87
2019-01-23T16:28:59.601Z,35.77
2019-01-23T16:31:27.288Z,36.10
2019-01-23T16:33:55.110Z,38.73
2019-01-23T16:36:22.827Z,38.50
2019-01-23T16:38:50.391Z,36.63
2019-01-23T16:41:18.061Z,36.43
2019-01-23T16:43:47.970Z,37.23
2019-01-23T16:46:17.364Z,37.90
2019-01-23T16:48:45.042Z,39.60
2019-01-23T16:51:16.259Z,38.03
2019-01-23T16:53:43.947Z,36.03
2019-01-23T16:56:12.572Z,36.17
2019-01-23T16:58:41.978Z,37.53
2019-01-23T17:01:09.810Z,36.23
2019-01-23T17:03:39.111Z,36.07
2019-01-23T17:06:06.860Z,38.57
2019-01-23T17:08:47.180Z,37.73
2019-01-23T17:11:21.245Z,38.17
2019-01-23T17:13:49.534Z,37.80
2019-01-23T17:16:17.651Z,37.27
2019-01-23T17:18:45.283Z,38.73
2019-01-23T17:21:13.022Z,38.77
2019-01-23T17:23:40.608Z,38.80
2019-01-23T17:26:08.499Z,38.93
2019-01-23T17:28:41.337Z,38.80
2019-01-23T17:31:08.956Z,38.93
2019-01-23T17:33:36.685Z,40.37
2019-01-23T17:36:04.445Z,39.23
2019-01-23T17:38:32.091Z,41.47
2019-01-23T17:40:59.713Z,37.77
2019-01-23T17:43:28.315Z,39.90
2019-01-23T17:46:01.008Z,39.57
2019-01-23T17:48:33.853Z,37.60
2019-01-23T17:51:01.579Z,42.33
2019-01-23T17:53:29.272Z,41.50
2019-01-23T17:55:57.252Z,40.37
2019-01-23T17:58:26.099Z,39.87
2019-01-23T18:00:55.578Z,39.30
2019-01-23T18:03:23.554Z,42.20
2019-01-23T18:05:51.414Z,37.70
2019-01-23T18:08:25.885Z,40.50
2019-01-23T18:10:53.513Z,41.37
2019-01-23T18:13:21.402Z,38.03
2019-01-23T18:15:49.175Z,37.93
2019-01-23T18:18:24.547Z,37.73
2019-01-23T18:20:52.252Z,37.77
2019-01-23T18:23:19.924Z,40.50
2019-01-23T18:25:47.580Z,39.13
2019-01-23T18:28:15.282Z,40.70
2019-01-23T18:30:53.587Z,41.03
2019-01-23T18:33:27.476Z,42.37
2019-01-23T18:36:17.861Z,56.80
2019-01-23T18:39:08.973Z,64.53
2019-01-23T18:42:08.201Z,54.40
2019-01-23T18:45:23.861Z,52.77
2019-01-23T18:48:16.642Z,45.60
2019-01-23T18:51:10.681Z,56.30
2019-01-23T18:54:03.114Z,44.67
2019-01-23T18:56:52.391Z,39.53
2019-01-23T19:00:27.895Z,39.23
2019-01-23T19:07:18.118Z,39.40
2019-01-23T19:13:56.232Z,43.23
2019-01-23T19:17:10.699Z,46.53
2019-01-23T19:24:28.969Z,41.97
2019-01-23T19:28:01.262Z,41.23
2019-01-23T19:31:29.115Z,40.43
2019-01-23T19:35:04.025Z,39.83
2019-01-23T19:41:32.508Z,39.00
2019-01-23T19:44:40.289Z,39.77
2019-01-23T19:47:45.825Z,40.67
2019-01-23T19:51:41.983Z,44.47
2019-01-23T19:54:43.999Z,52.33
2019-01-23T20:01:34.548Z,39.13
2019-01-23T20:05:04.425Z,41.87
2019-01-23T20:20:14.865Z,43.20
2019-01-23T20:23:37.079Z,42.33
2019-01-23T20:27:07.185Z,41.23
2019-01-23T20:29:57.421Z,38.77
2019-01-23T20:41:07.650Z,37.47
2019-01-23T20:44:46.621Z,39.53
2019-01-23T21:02:31.650Z,38.70
2019-01-23T21:05:05.174Z,36.33
2019-01-23T21:07:52.198Z,40.47
2019-01-23T21:10:35.580Z,38.63
2019-01-23T21:13:17.133Z,37.83
2019-01-23T21:15:52.631Z,34.63
2019-01-23T21:18:50.097Z,37.17
2019-01-23T21:25:41.913Z,35.87
2019-01-23T21:28:21.192Z,35.23
2019-01-23T21:31:16.359Z,35.87
2019-01-23T21:33:49.249Z,34.57
2019-01-23T21:36:25.528Z,34.67
2019-01-23T21:38:55.247Z,34.67
2019-01-23T21:41:27.714Z,36.33
2019-01-23T21:43:57.452Z,36.63
2019-01-23T21:46:33.501Z,36.83
2019-01-23T21:49:09.615Z,35.60
2019-01-23T21:51:47.731Z,35.20
2019-01-23T21:54:42.216Z,34.10
2019-01-23T21:57:18.115Z,32.33
2019-01-23T21:59:52.476Z,32.07
2019-01-23T22:02:44.883Z,35.37
2019-01-23T22:05:18.094Z,34.27
2019-01-23T22:08:04.073Z,32.47
2019-01-23T22:10:38.095Z,31.67
2019-01-23T22:13:19.647Z,31.47
2019-01-23T22:15:59.301Z,31.40
2019-01-23T22:18:48.058Z,32.60
2019-01-23T22:21:24.072Z,30.07
2019-01-23T22:24:02.349Z,32.30
2019-01-23T22:26:35.301Z,30.07
2019-01-23T22:29:13.844Z,31.37
2019-01-23T22:31:43.327Z,30.07
2019-01-23T22:34:16.661Z,30.63
2019-01-23T22:36:47.099Z,30.60
2019-01-23T22:39:21.448Z,30.17
2019-01-23T22:41:55.566Z,32.03
2019-01-23T22:44:34.601Z,31.37
2019-01-23T22:47:18.840Z,30.00
2019-01-23T22:49:51.232Z,30.83
2019-01-23T22:52:22.198Z,30.90
2019-01-23T22:54:51.630Z,30.77
2019-01-23T22:57:34.958Z,31.50
2019-01-23T23:00:04.469Z,32.10
2019-01-23T23:02:36.839Z,32.33
2019-01-23T23:05:04.923Z,32.70
2019-01-23T23:07:40.962Z,32.07
2019-01-23T23:10:11.629Z,34.60
2019-01-23T23:12:42.022Z,34.00
2019-01-23T23:15:14.107Z,34.67
2019-01-23T23:17:46.592Z,32.30
2019-01-23T23:20:17.385Z,33.73
2019-01-23T23:22:50.584Z,33.40
2019-01-23T23:25:21.250Z,33.07
2019-01-23T23:28:02.786Z,36.17
2019-01-23T23:30:40.637Z,34.63
2019-01-23T23:33:13.640Z,34.90
2019-01-23T23:35:41.375Z,35.13
2019-01-23T23:38:14.430Z,34.07
2019-01-23T23:40:45.211Z,34.63
2019-01-23T23:43:23.562Z,32.97
2019-01-23T23:45:56.572Z,34.80
2019-01-23T23:48:38.614Z,35.63
2019-01-23T23:51:21.136Z,34.07
2019-01-23T23:53:49.723Z,32.17
2019-01-23T23:56:24.160Z,32.23
2019-01-23T23:58:52.190Z,33.60
